Airfield :
LOGIN :

Register | Disclaimer

   EN    FR    IT 

 










Legend :    VFR   Marginal VFR   IFR   Intensive IFR   Very Intensive IFR
Visi :
Ceiling :
>= 8 km
>= 3000ft
5 to 8 km
1000 to 3000 ft
1500m to 5 km
500 to 1000 ft
800 to 1500m
200 to 500 ft
< 800m
< 200 ft
Symbols :   Thunderstorms  Fog  Heavy snow  Heavy precipitations  Wind > 20 kt
SIGMETs :     Misc.  Thunderstorms  Icing  Turbulence  Mountain Waves  Volcanic Ashes






- Airport Elevation : 408 ft
- IATA code : FKB


EDSB - Karlsruhe Baden Baden

CURRENT METAR :
  • 170650Z 03009KT 010V070 2200 BR OVC003 03/03 Q1009

EXPIRED METARs :
  • 170620Z 03009KT 2200 BR OVC003 03/03 Q1009
  • 170550Z 03009KT 2500 BR OVC003 03/03 Q1009
  • 170520Z 03008KT 2500 BR OVC003 03/03 Q1009
  • 170450Z 04007KT 1200 R21/P2000N BR BKN001 OVC005 03/03 Q1009
  • 170420Z 02006KT 0750 R21/1000U FG VV/// 02/02 Q1010

TAF TAF EDSB
Valid from the 17 at 06:00 until the 18 at 06:00 UTC


170500Z 1706/1806 02008KT 0500 FG BKN001
TEMPO 1706/1708 2500 BR BKN003
BECMG 1708/1710 6000 SCT015
TEMPO 1710/1715 3000 RA BKN006
BECMG 1715/1717 20005KT
PROB40
TEMPO 1715/1720 4000 BR BKN008



MET'MAP, your aeronautical weather chart ! - Copyright ORBIFLY December 2007 - Disclaimer

ORBIFLY MET'MAP TEAM :

Programming & Development : Alexandra Zaïnal
Concept & Development : Baudouin d'Aumeries
Co-Development & Prog : Marc-Olivier Méhu
Technical & hardware support : Manuel Goepfert

Contact : metmap@orbifly.com




SOURCES & CREDITS :

   NOAA